Map

Track Data

SID SEASON NUMBER BASIN SUBBASIN NAME ISO_TIME NATURE LAT LON WMO_WIND WMO_PRES WMO_AGENCY TRACK_TYPE DIST2LAND LANDFALL IFLAG USA_AGENCY USA_ATCF_ID USA_LAT USA_LON USA_RECORD USA_STATUS USA_WIND USA_PRES USA_SSHS USA_R34_NE USA_R34_SE USA_R34_SW USA_R34_NW USA_R50_NE USA_R50_SE USA_R50_SW USA_R50_NW USA_R64_NE USA_R64_SE USA_R64_SW USA_R64_NW USA_POCI USA_ROCI USA_RMW USA_EYE TOKYO_LAT TOKYO_LON TOKYO_GRADE TOKYO_WIND TOKYO_PRES TOKYO_R50_DIR TOKYO_R50_LONG TOKYO_R50_SHORT TOKYO_R30_DIR TOKYO_R30_LONG TOKYO_R30_SHORT TOKYO_LAND CMA_LAT CMA_LON CMA_CAT CMA_WIND CMA_PRES HKO_LAT HKO_LON HKO_CAT HKO_WIND HKO_PRES NEWDELHI_LAT NEWDELHI_LON NEWDELHI_GRADE NEWDELHI_WIND NEWDELHI_PRES NEWDELHI_CI NEWDELHI_DP NEWDELHI_POCI REUNION_LAT REUNION_LON REUNION_TYPE REUNION_WIND REUNION_PRES REUNION_TNUM REUNION_CI REUNION_RMW REUNION_R34_NE REUNION_R34_SE REUNION_R34_SW REUNION_R34_NW REUNION_R50_NE REUNION_R50_SE REUNION_R50_SW REUNION_R50_NW REUNION_R64_NE REUNION_R64_SE REUNION_R64_SW REUNION_R64_NW BOM_LAT BOM_LON BOM_TYPE BOM_WIND BOM_PRES BOM_TNUM BOM_CI BOM_RMW BOM_R34_NE BOM_R34_SE BOM_R34_SW BOM_R34_NW BOM_R50_NE BOM_R50_SE BOM_R50_SW BOM_R50_NW BOM_R64_NE BOM_R64_SE BOM_R64_SW BOM_R64_NW BOM_ROCI BOM_POCI BOM_EYE BOM_POS_METHOD BOM_PRES_METHOD NADI_LAT NADI_LON NADI_CAT NADI_WIND NADI_PRES WELLINGTON_LAT WELLINGTON_LON WELLINGTON_WIND WELLINGTON_PRES DS824_LAT DS824_LON DS824_STAGE DS824_WIND DS824_PRES TD9636_LAT TD9636_LON TD9636_STAGE TD9636_WIND TD9636_PRES TD9635_LAT TD9635_LON TD9635_WIND TD9635_PRES TD9635_ROCI NEUMANN_LAT NEUMANN_LON NEUMANN_CLASS NEUMANN_WIND NEUMANN_PRES MLC_LAT MLC_LON MLC_CLASS MLC_WIND MLC_PRES USA_GUST BOM_GUST BOM_GUST_PER REUNION_GUST REUNION_GUST_PER USA_SEAHGT USA_SEARAD_NE USA_SEARAD_SE USA_SEARAD_SW USA_SEARAD_NW STORM_SPEED STORM_DIR
1963018S17165 1963 7 SP MM NOT_NAMED 1963-01-17 12:00:00 TS -17.1000 165.000 main 247 242 O________OO___ jtwc_sh SH181963 -17.1000 165.000 -1 -17.1000 165.000 TC -17.1000 165.000 2 5 137
1963018S17165 1963 7 SP MM NOT_NAMED 1963-01-17 15:00:00 TS -17.2974 165.190 main 242 232 P________PP___ SH181963 -17.3025 165.177 -1 -17.3025 165.177 TC -17.2872 165.216 2 6 134
1963018S17165 1963 7 SP MM NOT_NAMED 1963-01-17 18:00:00 TS -17.4932 165.418 main 239 225 O________OP___ jtwc_sh SH181963 -17.5000 165.400 -1 -17.5000 165.400 TC -17.4795 165.455 2 6 128
1963018S17165 1963 7 SP MM NOT_NAMED 1963-01-17 21:00:00 TS -17.6889 165.717 main 225 208 P________PP___ SH181963 -17.6924 165.705 -1 -17.6924 165.705 TC -17.6820 165.742 2 8 122
1963018S17165 1963 7 SP MM NOT_NAMED 1963-01-18 00:00:00 TS -17.9000 166.100 main 208 195 O________OO_O_ jtwc_sh SH181963 -17.9000 166.100 -1 -17.9000 166.100 TC 35 -17.9000 166.100 2 -17.9000 166.100 TC 30 9 119
1963018S17165 1963 7 SP MM NOT_NAMED 1963-01-18 03:00:00 TS -18.1370 166.575 main 193 193 P________PP_P_ SH181963 -18.1351 166.585 -1 -18.1351 166.585 TC 35 -18.1378 166.542 2 -18.1428 166.605 TC 32 11 118
1963018S17165 1963 7 SP MM NOT_NAMED 1963-01-18 06:00:00 TS -18.3996 167.083 main 205 203 O________OP_O_ jtwc_sh SH181963 -18.4000 167.100 -1 -18.4000 167.100 TC 35 -18.3984 167.035 2 -18.4000 167.100 TC 35 11 120
1963018S17165 1963 7 SP MM NOT_NAMED 1963-01-18 09:00:00 TS -18.6849 167.563 main 235 235 P________PP_P_ SH181963 -18.6849 167.573 -1 -18.6849 167.573 TC 35 -18.6847 167.536 2 -18.6849 167.573 TC 35 11 125
1963018S17165 1963 7 SP MM NOT_NAMED 1963-01-18 12:00:00 TS -19.0000 168.000 main 269 269 O________OO_O_ jtwc_sh SH181963 -19.0000 168.000 -1 -19.0000 168.000 TC 35 -19.0000 168.000 2 -19.0000 168.000 TC 35 10 130
1963018S17165 1963 7 SP MM NOT_NAMED 1963-01-18 15:00:00 TS -19.3356 168.376 main 308 308 P________PP_P_ SH181963 -19.3349 168.373 -1 -19.3349 168.373 TC 35 -19.3377 168.385 2 -19.3349 168.373 TC 35 10 136
1963018S17165 1963 7 SP MM NOT_NAMED 1963-01-18 18:00:00 TS -19.7011 168.706 main 327 312 O________OP_O_ jtwc_sh SH181963 -19.7000 168.700 -1 -19.7000 168.700 TC 35 -19.7045 168.725 2 -19.7000 168.700 TC 35 10 141
1963018S17165 1963 7 SP MM NOT_NAMED 1963-01-18 21:00:00 TS -20.0873 169.024 main 312 304 P________PP_P_ SH181963 -20.0850 169.023 -1 -20.0850 169.023 TC 35 -20.0941 169.028 2 -20.0850 169.023 TC 35 10 145
1963018S17165 1963 7 SP MM NOT_NAMED 1963-01-19 00:00:00 TS -20.5000 169.300 main 304 293 O________OO_O_ jtwc_sh SH181963 -20.5000 169.300 -1 -20.5000 169.300 TC 35 -20.5000 169.300 2 -20.5000 169.300 TC 35 10 152
1963018S17165 1963 7 SP MM NOT_NAMED 1963-01-19 03:00:00 TS -20.9470 169.511 main 296 290 P________PP_P_ SH181963 -20.9499 169.508 -1 -20.9499 169.508 TC 35 -20.9384 169.522 2 -20.9499 169.508 TC 37 10 157
1963018S17165 1963 7 SP MM NOT_NAMED 1963-01-19 06:00:00 TS -21.3966 169.705 main 292 289 O________OP_O_ jtwc_sh SH181963 -21.4000 169.700 -1 -21.4000 169.700 TC 35 -21.3865 169.721 2 -21.4000 169.700 TC 40 10 156
1963018S17165 1963 7 SP MM NOT_NAMED 1963-01-19 09:00:00 TS -21.8246 169.927 main 302 302 P________PP_P_ SH181963 -21.8299 169.928 -1 -21.8299 169.928 TC 35 -21.8164 169.935 2 -21.8224 169.920 TC 42 9 150
1963018S17165 1963 7 SP MM NOT_NAMED 1963-01-19 12:00:00 TS -22.2000 170.200 main 329 329 O________OO_O_ jtwc_sh SH181963 -22.2000 170.200 -1 -22.2000 170.200 TC 35 -22.2000 170.200 2 -22.2000 170.200 TC 45 9 140
1963018S17165 1963 7 SP MM NOT_NAMED 1963-01-19 15:00:00 TS -22.4926 170.531 main 360 360 P________PP_P_ SH181963 -22.4723 170.513 -1 -22.4723 170.513 TC 35 -22.4956 170.528 2 -22.5300 170.570 TC 45 9 128
1963018S17165 1963 7 SP MM NOT_NAMED 1963-01-19 18:00:00 TS -22.7360 170.929 main 402 402 O________OP_O_ jtwc_sh SH181963 -22.7000 170.900 -1 -22.7000 170.900 TC 35 -22.7439 170.917 2 -22.8000 171.000 TC 45 9 121
1963018S17165 1963 7 SP MM NOT_NAMED 1963-01-19 21:00:00 TS -22.9674 171.374 main 458 458 P________PP_P_ SH181963 -22.9498 171.355 -1 -22.9498 171.355 TC 35 -22.9702 171.372 2 -22.9996 171.413 TC 45 10 117
1963018S17165 1963 7 SP MM NOT_NAMED 1963-01-20 00:00:00 TS -23.2000 171.900 main 512 512 O________OO_O_ jtwc_sh SH181963 -23.2000 171.900 -1 -23.2000 171.900 TC 35 -23.2000 171.900 2 -23.2000 171.900 TC 45 12 115
1963018S17165 1963 7 SP MM NOT_NAMED 1963-01-20 03:00:00 TS -23.4605 172.519 main 578 578 P________PP_P_ SH181963 -23.4424 172.520 -1 -23.4424 172.520 TC 35 -23.4648 172.523 2 -23.4925 172.512 TC 45 13 114
1963018S17165 1963 7 SP MM NOT_NAMED 1963-01-20 06:00:00 TS -23.7341 173.203 main 653 653 O________OP_O_ jtwc_sh SH181963 -23.7000 173.200 -1 -23.7000 173.200 TC 35 -23.7365 173.212 2 -23.8000 173.200 TC 45 14 113
1963018S17165 1963 7 SP MM NOT_NAMED 1963-01-20 09:00:00 TS -24.0125 173.920 main 730 730 P________PP_P_ SH181963 -23.9926 173.922 -1 -23.9926 173.922 TC 35 -24.0147 173.920 2 -24.0501 173.915 TC 42 14 114
1963018S17165 1963 7 SP MM NOT_NAMED 1963-01-20 12:00:00 TS -24.3000 174.600 main 747 743 O________OO_O_ jtwc_sh SH181963 -24.3000 174.600 -1 -24.3000 174.600 TC 35 -24.3000 174.600 2 -24.3000 174.600 TC 40 12 118
1963018S17165 1963 7 SP MM NOT_NAMED 1963-01-20 15:00:00 TS -24.5884 175.099 main 760 757 P________PP_P_ SH181963 -24.5993 175.116 -1 -24.5993 175.116 TC 35 -24.5628 174.990 2 -24.5920 175.173 TC 37 11 124
1963018S17165 1963 7 SP MM NOT_NAMED 1963-01-20 18:00:00 TS -24.8847 175.569 main 775 772 O________OP_O_ jtwc_sh SH181963 -24.9000 175.600 -1 -24.9000 175.600 TC 35 -24.8388 175.374 2 -24.9000 175.700 TC 35 10 125
1963018S17165 1963 7 SP MM NOT_NAMED 1963-01-20 21:00:00 TS -25.1728 176.013 main 795 793 P________PP_P_ SH181963 -25.1893 176.029 -1 -25.1893 176.029 TC 35 -25.1461 175.921 2 -25.1663 176.073 TC 35 13 119
1963018S17165 1963 7 SP MM NOT_NAMED 1963-01-21 00:00:00 TS -25.5000 176.800 main 812 811 O________OO_O_ jtwc_sh SH181963 -25.5000 176.800 -1 -25.5000 176.800 TC 35 -25.5000 176.800 2 -25.5000 176.800 TC 35 22 109
1963018S17165 1963 7 SP MM NOT_NAMED 1963-01-21 03:00:00 TS -25.8735 178.285 main 849 849 P________PP_P_ SH181963 -25.8207 178.249 -1 -25.8207 178.249 TC 35 -25.8579 178.290 2 -25.9948 178.353 TC 35 31 105
1963018S17165 1963 7 SP MM NOT_NAMED 1963-01-21 06:00:00 TS -26.2874 180.155 main 917 917 O________OP_O_ jtwc_sh SH181963 -26.2000 -179.900 -1 -26.2000 180.100 TC 35 -26.2495 -179.881 2 -26.5000 -179.700 TC 35 35 104
1963018S17165 1963 7 SP MM NOT_NAMED 1963-01-21 09:00:00 TS -26.7129 182.100 main 1020 1020 P________PP_P_ SH181963 -26.6639 -177.935 -1 -26.6639 -177.935 TC 35 -26.6889 -177.912 2 -26.8348 -177.817 TC 35 36 105
1963018S17165 1963 7 SP MM NOT_NAMED 1963-01-21 12:00:00 TS -27.2000 184.000 main 1152 1152 O________OO_O_ jtwc_sh SH181963 -27.2000 -176.000 -1 -27.2000 184.000 TC 35 -27.2000 -176.000 2 -27.2000 -176.000 TC 35 33 108
1963018S17165 1963 7 SP MM NOT_NAMED 1963-01-21 15:00:00 TS -27.7600 185.643 main 1281 1281 P________PP_P_ SH181963 -27.7516 -174.372 -1 -27.7516 -174.372 TC 35 -27.8070 -174.296 2 -27.7297 -174.389 TC 35 30 114
1963018S17165 1963 7 SP MM NOT_NAMED 1963-01-21 18:00:00 TS -28.4239 187.131 main 1302 1299 O________OP_O_ jtwc_sh SH181963 -28.4000 -172.900 -1 -28.4000 187.100 TC 35 -28.4955 -172.774 2 -28.4000 -172.900 TC 35 29 119
1963018S17165 1963 7 SP MM NOT_NAMED 1963-01-21 21:00:00 TS -29.1877 188.569 main 1323 1321 P________PP_P_ SH181963 -29.1689 -171.456 -1 -29.1689 -171.456 TC 35 -29.2372 -171.364 2 -29.1760 -171.450 TC 32 30 122
1963018S17165 1963 7 SP MM NOT_NAMED 1963-01-22 00:00:00 TS -30.0000 190.000 main 1354 O________OO_O_ jtwc_sh SH181963 -30.0000 -170.000 -1 -30.0000 190.000 TC 35 -30.0000 -170.000 2 -30.0000 -170.000 TC 30 30 123

Digital Typhoon Data and Search

About IBTrACS Database

This database is a web-friendly format of International Best Track Archive for Climate Stewardship (IBTrACS), a global best track data archive curated by NOAA dating back to 1842.

Updated: 2021-10-27